Time;durP1;ratioP1;P1;durP2;ratioP2;P2;SDS_P1;SDS_P2;PMS_P1;PMS_P2;Temp;Humidity;BMP_temperature;BMP_pressure;BME280_temperature;BME280_humidity;BME280_pressure;Samples;Min_cycle;Max_cycle;Signal;HPM_P1;HPM_P2
2022/08/07 00:01:32;;;;;;;7.22;3.58;;;;;;;14.10;75.61;102619.38;5031768;28;20489;-70
2022/08/07 00:03:58;;;;;;;5.32;2.92;;;;;;;14.09;75.78;102615.00;5032990;28;20160;-70
2022/08/07 00:06:23;;;;;;;5.15;3.25;;;;;;;14.02;75.87;102612.44;5033194;28;20451;-70
2022/08/07 00:08:48;;;;;;;4.75;3.45;;;;;;;13.99;76.03;102622.94;5030277;28;20030;-70
2022/08/07 00:11:14;;;;;;;6.47;3.50;;;;;;;13.80;76.64;102585.56;5031519;28;20044;-70
2022/08/07 00:13:41;;;;;;;5.65;3.10;;;;;;;13.98;76.58;102609.88;5033285;28;20079;-70
2022/08/07 00:16:06;;;;;;;4.60;3.70;;;;;;;13.90;76.54;102602.09;5032937;28;20531;-70
2022/08/07 00:18:31;;;;;;;7.45;3.50;;;;;;;13.94;76.49;102608.16;5030968;28;20029;-70
2022/08/07 00:21:00;;;;;;;6.70;3.40;;;;;;;13.88;76.69;102614.34;5031537;28;20037;-70
2022/08/07 00:23:25;;;;;;;5.95;3.65;;;;;;;13.78;76.89;102592.56;5032087;28;20036;-70
2022/08/07 00:25:51;;;;;;;6.45;3.58;;;;;;;13.74;77.26;102590.00;5032875;28;20412;-70
2022/08/07 00:28:16;;;;;;;5.28;3.60;;;;;;;13.76;76.96;102598.69;5032874;28;20057;-70
2022/08/07 00:30:42;;;;;;;4.15;3.40;;;;;;;13.75;77.87;102592.59;5030383;28;20397;-70
2022/08/07 00:33:07;;;;;;;4.72;3.63;;;;;;;13.76;78.16;102594.31;5030402;28;20029;-70
2022/08/07 00:35:33;;;;;;;4.63;3.38;;;;;;;13.67;77.75;102580.44;5032586;28;20071;-70
2022/08/07 00:37:59;;;;;;;6.15;3.67;;;;;;;13.67;78.06;102588.28;5032340;28;20449;-70
2022/08/07 00:40:26;;;;;;;4.90;4.03;;;;;;;13.65;78.51;102584.84;5029470;28;20077;-70
2022/08/07 00:42:51;;;;;;;5.50;3.70;;;;;;;13.62;78.25;102575.25;5031925;28;20437;-70
2022/08/07 00:45:16;;;;;;;7.40;3.72;;;;;;;13.50;78.44;102570.97;5030715;28;20021;-70
2022/08/07 00:47:42;;;;;;;5.20;4.18;;;;;;;13.52;78.87;102578.81;5032772;28;20509;-70
2022/08/07 00:50:07;;;;;;;8.32;4.28;;;;;;;13.52;79.26;102584.94;5031248;28;20064;-70
2022/08/07 00:52:33;;;;;;;8.23;4.30;;;;;;;13.51;79.24;102577.09;5030888;28;20033;-70
2022/08/07 00:54:58;;;;;;;5.78;4.03;;;;;;;13.48;79.34;102587.59;5032189;28;20025;-70
2022/08/07 00:57:24;;;;;;;7.15;4.55;;;;;;;13.46;79.39;102579.72;5032178;28;20377;-70
2022/08/07 00:59:50;;;;;;;5.53;4.10;;;;;;;13.43;79.82;102584.13;5028927;28;20048;-70
2022/08/07 01:02:15;;;;;;;5.30;3.85;;;;;;;13.33;79.89;102570.22;5030812;28;20060;-70
2022/08/07 01:04:41;;;;;;;5.88;4.55;;;;;;;13.24;80.18;102558.09;5032765;28;20032;-70
2022/08/07 01:07:06;;;;;;;6.65;4.60;;;;;;;13.22;80.45;102562.44;5031615;28;20024;-70
2022/08/07 01:09:32;;;;;;;8.10;4.80;;;;;;;13.19;81.07;102569.44;5031211;28;20515;-70
2022/08/07 01:11:58;;;;;;;8.57;4.93;;;;;;;13.10;81.19;102555.50;5030205;28;20108;-70
2022/08/07 01:14:24;;;;;;;7.55;4.72;;;;;;;13.25;81.51;102565.06;5031020;28;20025;-70
2022/08/07 01:16:51;;;;;;;6.50;4.53;;;;;;;13.23;81.59;102561.53;5031910;28;20040;-70
2022/08/07 01:19:17;;;;;;;9.05;5.05;;;;;;;13.24;81.40;102571.19;5030617;28;21599;-70
2022/08/07 01:21:44;;;;;;;8.00;4.80;;;;;;;13.20;81.51;102561.56;5030165;28;20029;-70
2022/08/07 01:24:09;;;;;;;8.20;4.70;;;;;;;13.07;82.20;102547.66;5031950;28;20083;-70
2022/08/07 01:26:35;;;;;;;6.13;4.57;;;;;;;13.06;81.94;102555.56;5031161;28;20732;-70
2022/08/07 01:29:01;;;;;;;6.38;4.80;;;;;;;13.00;82.28;102552.97;5031124;28;20037;-70
2022/08/07 01:31:30;;;;;;;6.88;4.78;;;;;;;13.01;82.81;102552.94;5029340;28;20473;-70
2022/08/07 01:33:57;;;;;;;8.95;5.00;;;;;;;12.94;82.74;102555.63;5050339;28;20021;-70
2022/08/07 01:36:24;;;;;;;6.70;5.05;;;;;;;12.91;82.58;102548.66;5051171;28;20476;-70
2022/08/07 01:38:49;;;;;;;7.18;5.05;;;;;;;12.96;83.02;102546.88;5050282;28;20165;-70
2022/08/07 01:41:17;;;;;;;8.07;5.57;;;;;;;12.95;82.89;102546.88;5030658;28;20524;-71
2022/08/07 01:43:43;;;;;;;6.90;5.43;;;;;;;12.92;83.20;102544.31;5048473;28;20472;-70
2022/08/07 01:46:08;;;;;;;8.73;5.07;;;;;;;12.83;83.50;102550.47;5051925;28;20028;-70
2022/08/07 01:48:34;;;;;;;7.38;5.72;;;;;;;12.76;83.48;102543.53;5045084;28;20064;-70
2022/08/07 01:51:05;;;;;;;6.60;5.72;;;;;;;12.74;83.59;102542.66;5032869;28;20033;-70
2022/08/07 01:53:35;;;;;;;10.13;5.95;;;;;;;12.76;83.97;102544.38;5034712;28;20036;-70
2022/08/07 01:56:06;;;;;;;7.72;5.40;;;;;;;12.75;84.13;102549.63;5051016;28;20372;-70
2022/08/07 01:58:36;;;;;;;6.60;5.30;;;;;;;12.71;84.21;102545.28;5051299;28;20108;-70
2022/08/07 02:01:06;;;;;;;9.02;5.85;;;;;;;12.67;85.17;102543.56;5037191;28;20025;-70
2022/08/07 02:03:38;;;;;;;6.90;5.47;;;;;;;12.61;84.88;102540.09;5046352;28;20163;-70
2022/08/07 02:06:07;;;;;;;9.18;5.57;;;;;;;12.60;85.41;102538.34;5047249;28;20037;-70
2022/08/07 02:08:39;;;;;;;8.15;5.63;;;;;;;12.63;85.11;102540.97;5049874;28;20454;-70
2022/08/07 02:11:05;;;;;;;9.27;5.80;;;;;;;12.58;84.79;102532.25;5034011;28;20167;-70
2022/08/07 02:13:33;;;;;;;8.27;6.03;;;;;;;12.48;85.70;102546.25;5051077;28;20033;-70
2022/08/07 02:16:00;;;;;;;6.65;5.22;;;;;;;12.45;85.74;102545.41;5051156;28;20025;-70
2022/08/07 02:18:28;;;;;;;7.63;5.78;;;;;;;12.47;85.99;102549.75;5044706;28;20040;-70
2022/08/07 02:20:55;;;;;;;10.77;5.88;;;;;;;12.43;85.59;102534.09;5028606;28;20033;-70
2022/08/07 02:23:22;;;;;;;10.45;5.88;;;;;;;12.47;86.18;102535.81;5050566;28;20028;-70
2022/08/07 02:25:49;;;;;;;8.73;5.65;;;;;;;12.46;86.07;102528.81;5051381;28;20057;-70
2022/08/07 02:28:15;;;;;;;9.85;6.32;;;;;;;12.47;86.17;102535.81;5044307;28;20028;-70
2022/08/07 02:30:42;;;;;;;9.43;6.35;;;;;;;12.36;86.10;102539.34;5047505;28;20021;-70
2022/08/07 02:33:09;;;;;;;9.70;5.95;;;;;;;12.26;86.42;102529.81;5051953;28;20033;-70
2022/08/07 02:35:36;;;;;;;9.27;6.50;;;;;;;12.34;86.85;102530.63;5051076;28;20040;-70
2022/08/07 02:38:03;;;;;;;8.52;6.38;;;;;;;12.33;87.18;102528.91;5046852;28;20040;-70
2022/08/07 02:40:30;;;;;;;7.03;6.05;;;;;;;12.37;87.10;102525.38;5042686;28;20387;-70
2022/08/07 02:42:57;;;;;;;12.85;6.93;;;;;;;12.37;87.20;102519.28;5047821;28;20048;-70
2022/08/07 02:45:26;;;;;;;9.25;5.82;;;;;;;12.32;87.17;102519.28;5048836;28;20025;-70
2022/08/07 02:47:52;;;;;;;7.53;6.40;;;;;;;12.38;87.32;102521.88;5048893;28;20388;-69
2022/08/07 02:50:18;;;;;;;9.20;6.25;;;;;;;12.33;87.38;102528.03;5051566;28;20033;-70
2022/08/07 02:53:05;;;;;;;13.60;6.68;;;;;;;12.29;86.54;102527.16;5039278;28;20481;-70
2022/08/07 02:55:34;;;;;;;7.43;6.13;;;;;;;12.28;87.42;102521.94;5052733;28;20419;-70
2022/08/07 02:58:06;;;;;;;10.18;6.57;;;;;;;12.29;87.41;102518.44;5045948;28;20025;-70
2022/08/07 03:00:35;;;;;;;9.05;6.03;;;;;;;12.26;87.77;102524.56;5046659;28;20038;-70
2022/08/07 03:03:03;;;;;;;7.15;6.40;;;;;;;12.22;87.62;102514.13;5036012;28;20469;-70
2022/08/07 03:05:29;;;;;;;7.03;5.90;;;;;;;12.17;88.10;102519.38;5042461;28;20117;-70
2022/08/07 03:07:55;;;;;;;14.00;7.10;;;;;;;12.15;88.22;102516.75;5037369;28;20113;-69
2022/08/07 03:10:21;;;;;;;8.80;6.78;;;;;;;12.10;88.13;102520.28;5048214;28;20033;-70
2022/08/07 03:12:48;;;;;;;9.20;6.57;;;;;;;12.02;88.36;102512.44;5048213;28;20028;-69
2022/08/07 03:15:15;;;;;;;9.45;6.30;;;;;;;12.01;88.60;102515.06;5036157;28;20029;-70
2022/08/07 03:17:41;;;;;;;8.20;6.57;;;;;;;11.95;88.86;102515.94;5039466;28;20032;-70
2022/08/07 03:20:07;;;;;;;8.80;6.95;;;;;;;11.90;88.92;102515.06;5044309;28;20598;-69
2022/08/07 03:22:33;;;;;;;7.97;6.30;;;;;;;11.85;89.32;102516.84;5050137;28;20047;-70
2022/08/07 03:24:59;;;;;;;10.35;7.03;;;;;;;11.81;89.42;102518.56;5050104;28;20465;-70
2022/08/07 03:27:26;;;;;;;7.95;6.30;;;;;;;11.81;89.96;102515.06;5047692;28;20021;-70
2022/08/07 03:29:51;;;;;;;9.63;6.63;;;;;;;11.75;90.12;102509.88;5039376;28;20029;-69
2022/08/07 03:32:30;;;;;;;8.57;6.80;;;;;;;11.83;90.25;102515.94;5053582;28;20116;-70
2022/08/07 03:34:58;;;;;;;7.75;6.60;;;;;;;11.86;90.43;102515.94;5049256;28;20033;-70
2022/08/07 03:37:25;;;;;;;7.85;6.18;;;;;;;11.91;90.10;102516.81;5041898;28;20472;-70
2022/08/07 03:39:51;;;;;;;9.35;6.55;;;;;;;11.90;90.24;102515.06;5052020;28;20033;-69
2022/08/07 03:42:17;;;;;;;10.77;7.40;;;;;;;11.84;90.19;102517.69;5042914;28;20503;-69
2022/08/07 03:44:43;;;;;;;9.32;7.00;;;;;;;11.70;90.16;102515.94;5053957;28;20029;-70
2022/08/07 03:47:11;;;;;;;9.13;6.88;;;;;;;11.58;90.44;102521.19;5039486;28;20434;-70
2022/08/07 03:49:37;;;;;;;10.45;7.15;;;;;;;11.52;90.67;102522.94;5040031;28;20036;-70
2022/08/07 03:52:03;;;;;;;9.38;6.95;;;;;;;11.49;91.08;102522.06;5052564;28;20377;-70
2022/08/07 03:54:29;;;;;;;10.45;7.30;;;;;;;11.47;91.09;102523.81;5052452;28;20518;-70
2022/08/07 03:56:56;;;;;;;8.95;7.43;;;;;;;11.45;91.16;102530.78;5035957;28;20025;-69
2022/08/07 03:59:21;;;;;;;10.07;7.13;;;;;;;11.49;91.39;102527.28;5039615;28;20061;-70
2022/08/07 04:01:47;;;;;;;8.25;6.63;;;;;;;11.53;91.64;102529.91;5053232;28;20056;-69
2022/08/07 04:04:17;;;;;;;10.07;7.20;;;;;;;11.53;91.69;102533.38;5053134;28;20109;-70
2022/08/07 04:06:43;;;;;;;9.90;7.20;;;;;;;11.47;91.79;102534.25;5034004;28;20021;-70
2022/08/07 04:09:09;;;;;;;9.48;7.35;;;;;;;11.47;91.76;102526.41;5031853;28;20372;-70
2022/08/07 04:11:35;;;;;;;10.10;7.45;;;;;;;11.45;91.80;102530.78;5041776;28;20090;-70
2022/08/07 04:14:02;;;;;;;10.05;6.63;;;;;;;11.47;91.58;102533.38;5049911;28;20029;-70
2022/08/07 04:16:27;;;;;;;7.93;6.93;;;;;;;11.43;91.76;102529.91;5042126;28;20374;-70
2022/08/07 04:18:53;;;;;;;8.18;7.00;;;;;;;11.47;92.03;102538.59;5032605;28;20129;-70
2022/08/07 04:21:18;;;;;;;10.60;7.80;;;;;;;11.48;92.06;102537.75;5047283;28;20086;-70
2022/08/07 04:23:45;;;;;;;9.55;7.32;;;;;;;11.52;92.42;102533.41;5052321;28;20031;-70
2022/08/07 04:26:11;;;;;;;10.70;8.13;;;;;;;11.45;92.08;102530.78;5044001;28;20029;-70
2022/08/07 04:28:37;;;;;;;10.60;7.43;;;;;;;11.51;92.17;102534.25;5050518;28;20033;-70
2022/08/07 04:31:03;;;;;;;11.18;7.78;;;;;;;11.50;92.13;102538.59;5051307;28;20574;-69
2022/08/07 04:33:29;;;;;;;9.85;7.95;;;;;;;11.46;92.05;102542.97;5041070;28;20075;-70
2022/08/07 04:35:55;;;;;;;9.52;7.70;;;;;;;11.49;92.59;102549.94;5041816;28;20026;-70
2022/08/07 04:38:20;;;;;;;11.57;7.20;;;;;;;11.57;92.46;102548.16;5040649;28;20107;-70
2022/08/07 04:40:46;;;;;;;9.98;7.47;;;;;;;11.65;92.01;102546.44;5045735;28;20024;-70
2022/08/07 04:43:16;;;;;;;10.77;7.00;;;;;;;11.62;92.11;102538.59;5041830;28;20048;-70
2022/08/07 04:46:34;;;;;;;11.57;7.70;;;;;;;11.70;90.88;102541.19;5047300;28;20540;-69
2022/08/07 04:49:18;;;;;;;8.65;7.53;;;;;;;11.71;91.90;102543.81;4971895;28;20027;-70
2022/08/07 04:51:55;;;;;;;9.00;6.68;;;;;;;11.72;92.04;102547.31;4970200;28;20557;-69
2022/08/07 04:54:42;;;;;;;9.82;7.40;;;;;;;11.71;91.82;102554.28;5032670;28;20045;-70
2022/08/07 04:57:30;;;;;;;11.63;8.25;;;;;;;11.76;91.60;102567.31;5048597;28;20033;-70
2022/08/07 05:00:01;;;;;;;12.77;7.22;;;;;;;11.79;91.90;102546.41;5052651;28;20063;-70
2022/08/07 05:02:49;;;;;;;11.75;7.88;;;;;;;11.91;91.94;102549.06;5045456;28;20029;-70
2022/08/07 05:05:23;;;;;;;8.63;7.50;;;;;;;11.95;91.50;102547.31;5038316;28;20029;-70
2022/08/07 05:08:04;;;;;;;11.73;7.50;;;;;;;11.97;91.41;102556.03;5052109;28;20147;-70
2022/08/07 05:10:32;;;;;;;9.80;7.15;;;;;;;11.99;92.00;102558.63;5049510;28;20068;-70
2022/08/07 05:13:15;;;;;;;11.57;7.78;;;;;;;11.97;91.31;102544.66;5051879;28;20116;-70
2022/08/07 05:15:43;;;;;;;11.20;7.80;;;;;;;12.09;91.56;102560.34;5044735;28;20115;-69
2022/08/07 05:18:18;;;;;;;12.45;7.43;;;;;;;12.15;91.09;102549.88;5044401;28;20039;-70
2022/08/07 05:20:47;;;;;;;10.07;7.45;;;;;;;12.17;91.70;102558.59;5043895;28;20116;-70
2022/08/07 05:23:17;;;;;;;10.40;7.38;;;;;;;12.19;91.51;102562.91;5052277;28;20120;-70
2022/08/07 05:25:43;;;;;;;11.13;7.55;;;;;;;12.27;91.17;102557.69;5041678;28;20026;-70
2022/08/07 05:28:10;;;;;;;9.63;7.10;;;;;;;12.33;90.67;102557.66;5051861;28;20056;-69
2022/08/07 05:30:36;;;;;;;10.57;7.78;;;;;;;12.47;90.30;102556.75;5044654;28;20120;-70
2022/08/07 05:33:03;;;;;;;9.23;7.18;;;;;;;12.54;90.20;102558.44;5050723;28;20032;-70
2022/08/07 05:35:30;;;;;;;9.52;7.15;;;;;;;12.54;89.55;102556.69;5044499;28;20026;-69
2022/08/07 05:37:56;;;;;;;9.80;7.53;;;;;;;12.61;88.97;102562.78;5049844;28;20029;-70
2022/08/07 05:40:22;;;;;;;10.75;7.57;;;;;;;12.76;88.85;102572.31;5043979;28;20111;-70
2022/08/07 05:42:48;;;;;;;8.57;7.30;;;;;;;12.81;89.21;102563.53;5041241;28;20454;-70
2022/08/07 05:45:15;;;;;;;12.95;7.35;;;;;;;12.86;88.44;102564.41;5047331;28;20039;-70
2022/08/07 05:47:40;;;;;;;9.35;7.90;;;;;;;12.91;87.93;102561.75;5040866;28;20021;-69
2022/08/07 05:50:07;;;;;;;10.90;7.95;;;;;;;12.99;86.55;102561.72;5051954;28;20155;-69
2022/08/07 05:52:33;;;;;;;9.48;7.78;;;;;;;13.08;87.25;102565.16;5039899;28;20033;-70
2022/08/07 05:55:00;;;;;;;13.23;8.00;;;;;;;13.17;87.25;102572.06;5040159;28;20021;-70
2022/08/07 05:57:26;;;;;;;12.63;7.85;;;;;;;13.24;86.15;102575.50;5036325;28;20167;-70
2022/08/07 05:59:53;;;;;;;11.05;7.20;;;;;;;13.31;85.50;102572.00;5037495;28;20100;-70
2022/08/07 06:02:19;;;;;;;12.55;7.50;;;;;;;13.34;84.29;102569.34;5042943;28;20040;-70
2022/08/07 06:04:52;;;;;;;12.27;8.07;;;;;;;13.42;83.68;102570.16;5055559;28;20040;-70
2022/08/07 06:07:18;;;;;;;9.43;8.07;;;;;;;13.49;83.06;102574.47;5034225;28;20381;-70
2022/08/07 06:09:44;;;;;;;12.70;8.30;;;;;;;13.59;82.55;102577.88;5044421;28;20052;-70
2022/08/07 06:12:10;;;;;;;9.35;7.75;;;;;;;13.61;82.95;102575.28;5055304;28;20127;-70
2022/08/07 06:14:35;;;;;;;11.80;8.07;;;;;;;13.69;81.65;102570.81;5054685;28;20438;-70
2022/08/07 06:17:02;;;;;;;11.95;8.40;;;;;;;13.75;80.92;102581.25;5039371;28;20033;-70
2022/08/07 06:19:28;;;;;;;10.68;7.82;;;;;;;13.81;81.71;102582.06;5042527;28;20033;-70
2022/08/07 06:21:55;;;;;;;14.48;8.75;;;;;;;13.82;81.40;102567.19;5044296;28;20043;-70
2022/08/07 06:24:20;;;;;;;14.38;9.20;;;;;;;13.94;80.51;102576.72;5054497;28;20060;-70
2022/08/07 06:26:46;;;;;;;10.98;8.63;;;;;;;13.99;80.32;102582.75;5044976;28;20060;-69
2022/08/07 06:29:11;;;;;;;11.60;8.30;;;;;;;14.05;81.26;102580.94;5054702;28;20051;-70
2022/08/07 06:31:37;;;;;;;12.35;9.32;;;;;;;14.12;81.00;102588.75;5041125;28;20496;-70
2022/08/07 06:34:02;;;;;;;14.55;9.82;;;;;;;14.14;79.32;102577.38;5048783;28;20204;-69
2022/08/07 06:36:27;;;;;;;12.07;9.18;;;;;;;14.19;79.91;102572.94;5039244;28;20029;-70
2022/08/07 06:38:53;;;;;;;13.38;9.40;;;;;;;14.19;79.25;102574.69;5054007;28;20120;-70
2022/08/07 06:41:26;;;;;;;12.38;10.00;;;;;;;14.26;79.79;102579.84;5046136;28;20028;-70
2022/08/07 06:43:53;;;;;;;13.88;9.68;;;;;;;14.31;79.41;102568.44;5022302;28;20472;-70
2022/08/07 06:46:19;;;;;;;11.85;9.55;;;;;;;14.35;79.25;102573.63;5028278;28;20032;-70
2022/08/07 06:48:45;;;;;;;10.93;9.02;;;;;;;14.41;78.42;102564.81;5053517;28;20095;-70
2022/08/07 06:51:16;;;;;;;14.27;9.20;;;;;;;14.48;78.44;102566.47;5045556;28;20504;-70
2022/08/07 06:53:43;;;;;;;13.73;9.65;;;;;;;14.56;78.68;102571.69;5050909;28;20017;-69
2022/08/07 06:56:11;;;;;;;11.25;9.32;;;;;;;14.65;79.19;102561.03;5054927;28;20025;-70
2022/08/07 06:58:38;;;;;;;12.13;9.35;;;;;;;14.72;77.94;102568.84;5053388;28;20059;-69
2022/08/07 07:01:09;;;;;;;10.75;8.70;;;;;;;14.82;76.28;102563.47;5046443;28;20030;-70
2022/08/07 07:03:38;;;;;;;13.25;8.98;;;;;;;14.87;75.57;102561.63;5033028;28;20473;-70
2022/08/07 07:06:04;;;;;;;13.98;8.98;;;;;;;14.92;76.06;102557.19;5051410;28;20032;-70
2022/08/07 07:08:30;;;;;;;14.23;8.82;;;;;;;14.99;75.58;102561.47;5038343;28;20040;-69
2022/08/07 07:10:55;;;;;;;14.13;9.02;;;;;;;15.03;74.00;102560.50;5045498;28;20029;-70
2022/08/07 07:13:35;;;;;;;15.45;9.25;;;;;;;15.09;74.81;102567.44;5053240;28;20028;-70
2022/08/07 07:16:06;;;;;;;15.50;9.85;;;;;;;15.15;74.41;102562.97;5052143;28;20104;-70
2022/08/07 07:18:58;;;;;;;11.48;9.20;;;;;;;15.21;75.25;102565.50;5037918;28;20021;-70
2022/08/07 07:21:31;;;;;;;13.85;8.43;;;;;;;15.37;74.33;102570.53;5031878;28;20055;-69
2022/08/07 07:23:57;;;;;;;;;;;;;;;15.44;74.52;102574.78;5054740;28;20036;-72
2022/08/07 07:26:23;;;;;;;10.70;7.90;;;;;;;15.54;72.26;102562.34;5040641;28;19912;-72
2022/08/07 07:29:04;;;;;;;16.02;8.85;;;;;;;15.64;73.14;102559.53;5047653;28;20100;-72
2022/08/07 07:31:38;;;;;;;15.10;8.50;;;;;;;15.75;72.02;102554.13;5036106;28;20033;-72
2022/08/07 07:34:08;;;;;;;10.80;8.35;;;;;;;15.86;72.20;102549.53;5032286;28;20065;-72
2022/08/07 07:36:37;;;;;;;11.25;8.15;;;;;;;15.94;71.25;102551.16;5026583;28;20029;-73
2022/08/07 07:39:03;;;;;;;12.73;8.43;;;;;;;15.99;71.20;102544.94;5046714;28;20484;-72
2022/08/07 07:41:31;;;;;;;12.98;8.52;;;;;;;16.12;69.79;102554.31;5053002;28;20515;-72
2022/08/07 07:43:59;;;;;;;10.73;8.85;;;;;;;16.22;70.97;102548.84;5040754;28;20041;-72
2022/08/07 07:46:25;;;;;;;13.98;8.80;;;;;;;16.32;70.53;102543.38;5048691;28;20040;-73
2022/08/07 07:48:52;;;;;;;12.85;8.98;;;;;;;16.39;69.94;102546.75;5044773;28;20431;-73
2022/08/07 07:51:20;;;;;;;11.35;8.70;;;;;;;16.46;69.81;102531.72;5040524;28;20042;-72
2022/08/07 07:53:47;;;;;;;11.68;8.68;;;;;;;16.56;70.45;102536.72;5033179;28;20060;-73
2022/08/07 07:56:13;;;;;;;11.48;8.20;;;;;;;16.65;69.31;102537.44;5040074;28;20037;-72
2022/08/07 07:58:40;;;;;;;13.48;8.43;;;;;;;16.76;69.50;102536.31;5032892;28;20508;-72
2022/08/07 08:01:07;;;;;;;11.05;8.30;;;;;;;16.88;69.62;102539.59;5031653;28;20116;-73
2022/08/07 08:03:35;;;;;;;13.57;8.38;;;;;;;16.96;68.51;102533.22;5032991;28;20759;-73
2022/08/07 08:06:01;;;;;;;12.35;8.38;;;;;;;17.02;67.67;102530.47;5033484;28;20048;-73
2022/08/07 08:08:31;;;;;;;10.75;7.82;;;;;;;17.15;67.03;102538.06;5029122;28;20579;-73
2022/08/07 08:10:58;;;;;;;9.20;7.32;;;;;;;17.30;67.25;102540.34;5032737;28;20026;-73
2022/08/07 08:13:25;;;;;;;11.52;8.43;;;;;;;17.38;65.33;102530.47;5030937;28;20597;-73
2022/08/07 08:15:51;;;;;;;10.43;6.85;;;;;;;17.48;64.76;102529.31;5023624;28;20025;-73
2022/08/07 08:18:18;;;;;;;9.98;7.32;;;;;;;17.50;64.23;102538.06;5032437;28;20504;-73
2022/08/07 08:20:45;;;;;;;11.88;6.97;;;;;;;17.63;64.70;102543.03;5033000;28;20069;-73
2022/08/07 08:28:36;;;;;;;6.40;5.22;;;;;;;17.86;61.34;102538.06;5031227;28;20036;-73
2022/08/07 08:31:04;;;;;;;6.45;4.97;;;;;;;17.92;60.12;102532.59;5032043;28;20036;-73
2022/08/07 08:33:35;;;;;;;6.97;4.82;;;;;;;18.01;61.70;102532.31;5032499;28;20473;-74
2022/08/07 08:36:02;;;;;;;7.22;4.20;;;;;;;18.12;59.01;102542.59;5032318;28;20036;-73
2022/08/07 08:38:34;;;;;;;5.45;3.85;;;;;;;18.21;60.23;102536.19;5032454;28;20389;-73
2022/08/07 08:41:06;;;;;;;8.57;4.82;;;;;;;18.32;61.27;102538.53;5043508;28;20590;-73
2022/08/07 08:43:45;;;;;;;7.60;4.50;;;;;;;18.40;59.70;102545.31;5048983;28;20084;-73
2022/08/07 08:46:23;;;;;;;5.18;4.18;;;;;;;18.49;59.14;102539.75;5052764;28;20025;-73
2022/08/07 08:49:00;;;;;;;6.28;4.38;;;;;;;18.59;59.75;102537.72;5051742;28;20029;-73
2022/08/07 08:51:35;;;;;;;10.30;4.18;;;;;;;18.73;59.71;102536.44;5038664;28;20369;-73
2022/08/07 08:54:14;;;;;;;5.93;4.50;;;;;;;18.85;59.37;102539.59;5052489;28;20032;-73
2022/08/07 08:56:42;;;;;;;6.32;4.28;;;;;;;18.89;56.44;102530.63;5042219;28;20025;-73
2022/08/07 08:59:19;;;;;;;7.13;4.13;;;;;;;19.01;58.62;102542.59;5035234;28;20029;-73
2022/08/07 09:01:57;;;;;;;7.65;3.90;;;;;;;19.10;57.07;102536.19;5052515;28;20056;-73
2022/08/07 09:04:26;;;;;;;5.22;3.90;;;;;;;19.26;57.04;102537.41;5038059;28;20116;-73
2022/08/07 09:07:15;;;;;;;5.10;3.42;;;;;;;19.44;57.89;102525.34;5041632;28;20032;-73
2022/08/07 09:10:06;;;;;;;4.50;3.60;;;;;;;19.60;57.47;102530.97;5025505;28;20104;-73
2022/08/07 09:12:59;;;;;;;7.13;3.78;;;;;;;19.71;56.51;102531.47;5042271;28;20032;-73
2022/08/07 09:15:48;;;;;;;5.60;3.38;;;;;;;19.62;55.31;102524.72;5040770;28;20037;-74
2022/08/07 09:18:36;;;;;;;4.78;3.20;;;;;;;19.67;54.29;102526.34;5028733;28;20037;-74
2022/08/07 09:21:35;;;;;;;5.13;3.60;;;;;;;19.76;54.04;102532.19;5037593;28;20460;-73
2022/08/07 09:24:16;;;;;;;4.68;3.47;;;;;;;19.76;53.56;102524.25;5049572;28;20433;-74
2022/08/07 09:27:15;;;;;;;6.07;3.53;;;;;;;19.80;53.27;102532.94;5032212;28;20060;-74
2022/08/07 09:29:59;;;;;;;5.60;3.72;;;;;;;19.94;52.01;102520.06;5045495;28;20024;-74
2022/08/07 09:32:54;;;;;;;7.47;3.80;;;;;;;20.01;52.01;102520.72;5022541;28;20036;-73
2022/08/07 09:35:39;;;;;;;6.57;3.70;;;;;;;20.09;50.58;102516.00;5041884;28;20112;-73
2022/08/07 09:38:10;;;;;;;4.45;3.45;;;;;;;20.07;50.86;102515.19;5031150;28;20025;-73
2022/08/07 09:41:15;;;;;;;5.82;3.47;;;;;;;20.14;51.28;102514.03;5050171;28;20029;-73
2022/08/07 09:43:53;;;;;;;5.47;3.63;;;;;;;20.18;51.21;102510.38;5025263;28;20038;-73
2022/08/07 09:46:28;;;;;;;5.93;3.38;;;;;;;20.31;52.14;102508.13;5007896;28;20057;-73
2022/08/07 09:49:11;;;;;;;4.60;3.17;;;;;;;20.55;51.97;102499.25;5021208;28;20037;-73
2022/08/07 09:51:58;;;;;;;4.95;3.22;;;;;;;20.66;50.64;102496.19;5028298;28;20030;-73
2022/08/07 09:54:33;;;;;;;5.95;3.63;;;;;;;20.78;49.94;102497.50;5016694;28;20040;-74
2022/08/07 09:57:33;;;;;;;4.85;3.40;;;;;;;20.88;51.39;102500.63;5025250;28;20120;-73
2022/08/07 10:00:07;;;;;;;5.82;3.47;;;;;;;20.95;48.62;102496.81;5024905;28;20104;-74
2022/08/07 10:03:03;;;;;;;6.35;3.83;;;;;;;21.09;49.06;102499.75;5030946;28;20017;-74
2022/08/07 10:05:47;;;;;;;4.55;3.03;;;;;;;21.15;48.18;102495.97;5009547;28;20084;-74
2022/08/07 10:08:27;;;;;;;4.18;3.40;;;;;;;21.20;48.69;102488.69;5020151;28;20034;-75
2022/08/07 10:11:10;;;;;;;4.30;3.22;;;;;;;21.26;46.20;102476.03;5031484;28;20037;-74
2022/08/07 10:14:00;;;;;;;3.90;2.83;;;;;;;21.43;48.21;102480.66;5031045;28;20103;-75
2022/08/07 10:16:34;;;;;;;4.47;3.00;;;;;;;21.62;47.34;102469.25;5002174;28;20115;-75
2022/08/07 10:19:37;;;;;;;5.80;3.70;;;;;;;21.81;47.29;102475.47;5018278;28;20069;-75
2022/08/07 10:22:31;;;;;;;5.72;3.63;;;;;;;21.92;47.50;102473.16;4988792;28;20056;-74
2022/08/07 10:25:05;;;;;;;7.75;3.33;;;;;;;21.92;45.66;102474.97;5001253;28;20042;-75
2022/08/07 10:28:11;;;;;;;4.38;3.33;;;;;;;21.95;45.64;102474.84;5026724;28;20105;-75
2022/08/07 10:30:43;;;;;;;4.18;3.42;;;;;;;22.15;46.73;102463.28;5030885;28;20112;-74
2022/08/07 10:33:26;;;;;;;4.18;3.38;;;;;;;22.37;46.19;102463.19;5031383;28;20554;-75
2022/08/07 10:36:14;;;;;;;5.20;3.20;;;;;;;22.53;46.71;102464.16;5030993;28;20091;-71
2022/08/07 10:38:59;;;;;;;3.75;3.10;;;;;;;22.60;44.67;102460.28;5015650;28;20053;-75
2022/08/07 10:41:33;;;;;;;4.72;3.33;;;;;;;22.60;44.38;102462.94;5015869;28;20109;-74
2022/08/07 10:44:09;;;;;;;4.45;3.20;;;;;;;22.65;43.03;102452.91;5029939;28;20036;-74
2022/08/07 10:46:47;;;;;;;6.75;3.17;;;;;;;22.70;43.56;102447.41;5031551;28;20029;-75
2022/08/07 10:49:25;;;;;;;6.78;3.00;;;;;;;22.85;44.69;102448.41;5029957;28;20807;-75
2022/08/07 10:52:10;;;;;;;8.90;3.50;;;;;;;22.87;42.70;102447.41;5038057;28;20076;-70
2022/08/07 10:54:42;;;;;;;7.45;3.42;;;;;;;22.81;40.73;102442.41;5046314;28;20063;-71
2022/08/07 10:57:18;;;;;;;4.60;3.10;;;;;;;22.64;41.36;102443.22;5040347;28;20110;-71
2022/08/07 10:59:46;;;;;;;3.33;2.78;;;;;;;22.52;43.94;102438.50;5035789;28;20026;-71
2022/08/07 11:02:25;;;;;;;3.60;2.55;;;;;;;22.82;44.41;102441.44;5037723;28;20028;-71
2022/08/07 11:04:56;;;;;;;4.47;3.05;;;;;;;23.03;40.96;102436.91;5039729;28;20393;-71
2022/08/07 11:07:33;;;;;;;4.57;2.67;;;;;;;23.12;41.03;102436.44;5036701;28;20032;-71
2022/08/07 11:10:02;;;;;;;3.10;2.67;;;;;;;23.09;38.54;102428.63;5045923;28;20087;-75
2022/08/07 11:12:36;;;;;;;3.88;2.70;;;;;;;23.17;39.32;102430.00;5053626;28;20047;-71
2022/08/07 11:15:16;;;;;;;5.13;3.08;;;;;;;23.23;41.23;102417.25;5047832;28;20384;-71
2022/08/07 11:18:00;;;;;;;4.25;2.90;;;;;;;23.52;41.10;102407.75;5039595;28;20025;-70
2022/08/07 11:20:32;;;;;;;4.65;2.85;;;;;;;23.81;39.92;102411.53;5048759;28;20027;-71
2022/08/07 11:23:13;;;;;;;2.90;2.50;;;;;;;23.99;39.46;102406.97;5028745;28;20083;-71
2022/08/07 11:26:04;;;;;;;6.68;2.67;;;;;;;24.11;39.23;102410.78;5030948;28;20029;-71
2022/08/07 11:28:40;;;;;;;3.92;2.58;;;;;;;24.33;39.80;102399.78;5036385;28;20131;-71
2022/08/07 11:31:14;;;;;;;4.75;2.80;;;;;;;24.39;35.15;102404.72;5050878;28;20025;-71
2022/08/07 11:33:52;;;;;;;5.75;2.72;;;;;;;24.45;34.59;102403.56;5043326;28;20119;-71
2022/08/07 11:36:30;;;;;;;3.22;2.50;;;;;;;24.57;37.25;102410.00;5035915;28;20025;-71
2022/08/07 11:39:23;;;;;;;4.20;2.60;;;;;;;24.68;37.54;102396.88;5046687;28;20036;-71
2022/08/07 11:42:08;;;;;;;4.45;2.33;;;;;;;24.90;37.55;102397.34;5049418;28;20045;-71
2022/08/07 11:44:49;;;;;;;3.47;2.08;;;;;;;25.17;36.43;102402.84;5038321;28;20030;-71
2022/08/07 11:47:30;;;;;;;4.00;2.22;;;;;;;25.22;35.97;102389.25;5028308;28;20029;-71